KSNY/SNY METAR and TAF weather

Enter ICAO airport designator
Station Type Date Time Source
KSNY METAR 2020/07/12 01:53 UTC NOAA

KSNY 120153Z AUTO A3014 RMK AO2 SLPNO PWINO $


Station Type Date Time Source
KSNY Decoded METAR 2020/07/12 01:53 UTC NOAA

SIDNEY MUNICIPAL AIRPORT, NE, United States (KSNY) 41-06N 102-59W 1307M
Jul 11, 2020 - 09:53 PM EDT / 2020.07.12 0153 UTC
Pressure (altimeter): 30.14 in. Hg (1020 hPa)
ob: KSNY 120153Z AUTO A3014 RMK AO2 SLPNO PWINO
cycle: 2

Station Type Date Time Source
KSNY TAF 2020/07/11 18:39 UTC NOAA

TAF KSNY 111724Z 1118/1218 06008KT P6SM SKC
FM120100 12007KT P6SM SKC
AMD NOT SKED

Example: see airport list